Duck Lake, Canada
Current Conditions -  °F | °C
As of 7:00 AM on Friday 24 Oct 2014 (Local Time) from CYPA Reporting Station
Rain Showers Rain Showers  
Wind Chill:   Ceiling: 9300
Heat Index:   Visibility: 15mi
Dew Point:   Wind: 8mph
Humidity: 81%   Direction: 270°W
Pressure: 29.55"   Gusts: NA
Location:  52.8°N, 106.22°W
Report Text: CYPA 241300Z 27007KT 15SM -SHRA BKN093 05/02 A2955 RMK AC7 ACC EMBD SLP022
Loading
Personal Weather Stations






























Interactive Weather Map
Tropical Storm Tracking
New forecast layout! Learn more

10-Day Weather Forecast

Advertisements
Track Severe Weather on mobile